Jard de Esperanza, Puerto Rico
Current Conditions -  °F | °C
As of 1:15 AM on Sunday 21 Dec 2014 (Local Time) from TJNR Reporting Station
Broken Clouds Broken Clouds  
Wind Chill: 78°   Ceiling: 2700
Heat Index: 80°   Visibility: 10mi
Dew Point: 70°   Wind: 14mph
Humidity: 76%   Direction: 70°ENE
Pressure: 30.06"   Gusts: 20mph
Location:  18.2147°N, 65.7358°W
Report Text: TJNR 210515Z AUTO 07012G17KT 10SM BKN027 BKN036 26/21 A3006 RMK AO2 T02560211 $
Loading
Personal Weather Stations






























Interactive Weather Map New forecast layout! Learn more

10-Day Weather Forecast

Advertisements
Track Severe Weather on mobile